createdAt,value
2023-03-11T00:00:38.765Z,20.84
2023-03-11T00:01:41.488Z,18.79
2023-03-11T00:02:44.098Z,21.89
2023-03-11T00:03:46.692Z,23.85
2023-03-11T00:04:49.175Z,17.83
2023-03-11T00:05:51.782Z,17.87
2023-03-11T00:06:54.443Z,21.01
2023-03-11T00:07:56.997Z,20.18
2023-03-11T00:08:59.555Z,17.63
2023-03-11T00:10:02.143Z,21.06
2023-03-11T00:11:06.567Z,18.55
2023-03-11T00:12:09.087Z,18.88
2023-03-11T00:13:11.640Z,19.04
2023-03-11T00:14:14.237Z,18.03
2023-03-11T00:15:16.846Z,16.67
2023-03-11T00:16:20.077Z,18.44
2023-03-11T00:17:22.614Z,21.33
2023-03-11T00:18:25.195Z,18.31
2023-03-11T00:19:27.775Z,19.89
2023-03-11T00:20:30.409Z,17.64
2023-03-11T00:21:32.969Z,19.59
2023-03-11T00:22:35.604Z,19.97
2023-03-11T00:23:38.267Z,21.04
2023-03-11T00:24:40.840Z,17.09
2023-03-11T00:25:43.415Z,19.26
2023-03-11T00:26:45.989Z,21.28
2023-03-11T00:27:48.574Z,18.50
2023-03-11T00:28:51.141Z,19.53
2023-03-11T00:29:53.734Z,22.12
2023-03-11T00:30:56.443Z,23.08
2023-03-11T00:31:59.141Z,22.32
2023-03-11T00:33:01.711Z,20.02
2023-03-11T00:34:04.279Z,20.73
2023-03-11T00:35:06.842Z,20.63
2023-03-11T00:36:09.557Z,18.63
2023-03-11T00:37:12.069Z,26.35
2023-03-11T00:38:14.635Z,18.72
2023-03-11T00:39:17.192Z,19.85
2023-03-11T00:40:19.766Z,22.65
2023-03-11T00:41:22.464Z,25.34
2023-03-11T00:42:25.008Z,22.77
2023-03-11T00:43:27.645Z,25.51
2023-03-11T00:44:30.225Z,19.46
2023-03-11T00:45:32.780Z,23.35
2023-03-11T00:46:35.514Z,21.63
2023-03-11T00:47:38.217Z,21.50
2023-03-11T00:48:40.785Z,19.67
2023-03-11T00:49:43.661Z,23.16
2023-03-11T00:50:46.227Z,21.42
2023-03-11T00:51:49.007Z,19.57
2023-03-11T00:52:51.571Z,21.99
2023-03-11T00:53:54.122Z,20.89
2023-03-11T00:54:56.876Z,26.33
2023-03-11T00:55:59.440Z,21.26
2023-03-11T00:57:01.993Z,24.93
2023-03-11T00:58:04.514Z,22.27
2023-03-11T00:59:07.066Z,19.66
2023-03-11T01:00:10.585Z,22.13
2023-03-11T01:01:13.198Z,21.85
2023-03-11T01:02:15.734Z,20.87
2023-03-11T01:03:18.287Z,22.43
2023-03-11T01:04:20.946Z,22.36
2023-03-11T01:05:23.647Z,22.18
2023-03-11T01:06:32.665Z,20.66
2023-03-11T01:07:30.649Z,22.52
2023-03-11T01:08:33.212Z,22.48
2023-03-11T01:09:35.726Z,22.51
2023-03-11T01:10:38.484Z,24.09
2023-03-11T01:11:41.164Z,20.89
2023-03-11T01:12:43.631Z,21.85
2023-03-11T01:13:46.191Z,24.27
2023-03-11T01:14:48.743Z,21.19
2023-03-11T01:15:51.354Z,21.33
2023-03-11T01:16:53.892Z,20.91
2023-03-11T01:17:56.448Z,23.72
2023-03-11T01:18:59.003Z,28.50
2023-03-11T01:20:01.559Z,24.98
2023-03-11T01:21:04.109Z,22.12
2023-03-11T01:22:06.669Z,24.60
2023-03-11T01:23:09.693Z,24.60
2023-03-11T01:24:12.248Z,21.85
2023-03-11T01:25:14.817Z,24.89
2023-03-11T01:26:17.585Z,29.14
2023-03-11T01:27:20.137Z,21.09
2023-03-11T01:28:22.644Z,27.25
2023-03-11T01:29:25.211Z,23.97
2023-03-11T01:30:27.811Z,25.27
2023-03-11T01:31:30.530Z,25.23
2023-03-11T01:32:33.397Z,27.22
2023-03-11T01:33:36.319Z,24.21
2023-03-11T01:34:38.854Z,22.59
2023-03-11T01:35:41.420Z,22.53
2023-03-11T01:36:43.968Z,29.61
2023-03-11T01:37:46.476Z,26.46
2023-03-11T01:38:49.037Z,24.20
2023-03-11T01:39:51.627Z,24.18
2023-03-11T01:40:54.198Z,26.46
2023-03-11T01:41:56.747Z,25.99
2023-03-11T01:42:59.768Z,29.30
2023-03-11T01:44:02.310Z,24.96
2023-03-11T01:45:04.864Z,24.65
2023-03-11T01:46:07.798Z,25.86
2023-03-11T01:47:10.398Z,25.74
2023-03-11T01:48:12.997Z,26.48
2023-03-11T01:49:15.798Z,22.67
2023-03-11T01:50:18.463Z,23.62
2023-03-11T01:51:21.010Z,27.81
2023-03-11T01:52:23.603Z,28.51
2023-03-11T01:53:26.209Z,25.09
2023-03-11T01:54:28.774Z,25.23
2023-03-11T01:55:31.329Z,26.24
2023-03-11T01:56:33.929Z,27.40
2023-03-11T01:57:36.488Z,28.47
2023-03-11T01:58:39.114Z,28.56
2023-03-11T01:59:41.670Z,28.22
2023-03-11T02:00:44.438Z,25.01
2023-03-11T02:01:47.059Z,23.65
2023-03-11T02:02:49.813Z,29.79
2023-03-11T02:03:52.343Z,26.88
2023-03-11T02:04:54.911Z,25.04
2023-03-11T02:05:57.493Z,24.95
2023-03-11T02:07:00.044Z,25.39
2023-03-11T02:08:02.598Z,23.05
2023-03-11T02:09:05.177Z,27.18
2023-03-11T02:10:07.821Z,25.95
2023-03-11T02:11:10.418Z,25.41
2023-03-11T02:12:12.996Z,28.86
2023-03-11T02:13:15.541Z,23.71
2023-03-11T02:14:18.098Z,26.01
2023-03-11T02:15:20.638Z,31.48
2023-03-11T02:16:23.369Z,31.47
2023-03-11T02:17:26.223Z,30.84
2023-03-11T02:18:28.775Z,23.05
2023-03-11T02:19:31.347Z,25.95
2023-03-11T02:20:33.905Z,27.51
2023-03-11T02:21:36.504Z,27.23
2023-03-11T02:22:39.064Z,28.75
2023-03-11T02:23:41.623Z,29.94
2023-03-11T02:24:44.173Z,27.29
2023-03-11T02:25:46.724Z,28.20
2023-03-11T02:26:49.628Z,27.86
2023-03-11T02:27:52.203Z,29.77
2023-03-11T02:28:54.759Z,28.50
2023-03-11T02:29:57.311Z,29.22
2023-03-11T02:31:00.161Z,31.86
2023-03-11T02:32:02.776Z,34.16
2023-03-11T02:33:05.346Z,29.89
2023-03-11T02:34:07.884Z,27.82
2023-03-11T02:35:10.482Z,27.87
2023-03-11T02:36:13.368Z,27.92
2023-03-11T02:37:15.933Z,28.09
2023-03-11T02:38:18.691Z,30.99
2023-03-11T02:39:22.852Z,25.61
2023-03-11T02:40:25.409Z,28.60
2023-03-11T02:41:27.968Z,28.63
2023-03-11T02:42:30.565Z,29.52
2023-03-11T02:43:33.172Z,28.35
2023-03-11T02:44:35.545Z,28.25
2023-03-11T02:45:38.095Z,29.13
2023-03-11T02:46:40.747Z,28.41
2023-03-11T02:47:43.708Z,30.33
2023-03-11T02:48:46.169Z,34.39
2023-03-11T02:49:48.740Z,31.87
2023-03-11T02:50:51.300Z,34.75
2023-03-11T02:51:53.855Z,33.41
2023-03-11T02:52:56.367Z,32.29
2023-03-11T02:53:58.924Z,40.77
2023-03-11T02:55:01.483Z,35.15
2023-03-11T02:56:04.033Z,32.55
2023-03-11T02:57:06.591Z,32.95
2023-03-11T02:58:09.192Z,31.33
2023-03-11T02:59:11.779Z,31.17
2023-03-11T03:00:14.426Z,32.87
2023-03-11T03:01:17.748Z,36.17
2023-03-11T03:02:20.277Z,33.63
2023-03-11T03:03:23.530Z,35.78
2023-03-11T03:04:26.293Z,34.31
2023-03-11T03:05:29.140Z,31.61
2023-03-11T03:06:31.701Z,34.33
2023-03-11T03:07:34.586Z,32.32
2023-03-11T03:08:37.305Z,34.42
2023-03-11T03:09:39.885Z,35.86
2023-03-11T03:10:42.479Z,34.03
2023-03-11T03:11:45.054Z,44.59
2023-03-11T03:12:47.646Z,32.43
2023-03-11T03:13:50.243Z,37.64
2023-03-11T03:14:52.812Z,34.73
2023-03-11T03:15:55.364Z,37.09
2023-03-11T03:16:58.134Z,36.33
2023-03-11T03:18:00.761Z,37.31
2023-03-11T03:19:03.375Z,37.99
2023-03-11T03:20:06.418Z,37.92
2023-03-11T03:21:08.996Z,39.36
2023-03-11T03:22:11.769Z,39.66
2023-03-11T03:23:14.442Z,35.40
2023-03-11T03:24:17.138Z,39.25
2023-03-11T03:25:19.720Z,39.41
2023-03-11T03:26:22.299Z,40.24
2023-03-11T03:27:24.852Z,38.41
2023-03-11T03:28:27.405Z,43.54
2023-03-11T03:29:30.166Z,38.88
2023-03-11T03:30:32.738Z,39.95
2023-03-11T03:31:35.317Z,44.88
2023-03-11T03:32:37.928Z,35.16
2023-03-11T03:33:40.548Z,39.35
2023-03-11T03:34:43.176Z,41.81
2023-03-11T03:35:45.773Z,44.85
2023-03-11T03:36:48.515Z,47.03
2023-03-11T03:37:51.079Z,47.56
2023-03-11T03:38:53.640Z,42.16
2023-03-11T03:39:56.252Z,49.41
2023-03-11T03:40:58.809Z,47.24
2023-03-11T03:42:01.402Z,43.69
2023-03-11T03:43:04.238Z,51.84
2023-03-11T03:44:06.798Z,53.06
2023-03-11T03:45:09.405Z,46.36
2023-03-11T03:46:12.702Z,49.03
2023-03-11T03:47:15.237Z,66.84
2023-03-11T03:48:17.815Z,58.03
2023-03-11T03:49:20.537Z,55.60
2023-03-11T03:50:23.301Z,58.43
2023-03-11T03:51:25.880Z,65.52
2023-03-11T03:52:28.438Z,68.62
2023-03-11T03:53:31.021Z,59.99
2023-03-11T03:54:33.607Z,57.74
2023-03-11T03:55:36.226Z,65.47
2023-03-11T03:56:38.892Z,67.05
2023-03-11T03:57:41.447Z,72.58
2023-03-11T03:58:43.914Z,91.21
2023-03-11T03:59:46.476Z,95.61
2023-03-11T04:00:49.287Z,84.44
2023-03-11T04:01:51.874Z,79.86
2023-03-11T04:02:54.433Z,68.27
2023-03-11T04:03:56.988Z,66.63
2023-03-11T04:04:59.549Z,75.57
2023-03-11T04:06:02.152Z,51.23
2023-03-11T04:07:04.721Z,50.27
2023-03-11T04:08:07.295Z,47.11
2023-03-11T04:09:09.852Z,64.79
2023-03-11T04:10:12.711Z,65.25
2023-03-11T04:11:15.306Z,67.39
2023-03-11T04:12:17.880Z,119.56
2023-03-11T04:13:20.458Z,74.76
2023-03-11T04:14:23.053Z,74.77
2023-03-11T04:15:26.553Z,61.28
2023-03-11T04:16:29.210Z,74.75
2023-03-11T04:17:32.016Z,62.93
2023-03-11T04:18:34.576Z,80.50
2023-03-11T04:19:37.148Z,69.15
2023-03-11T04:20:40.013Z,102.42
2023-03-11T04:21:42.646Z,87.85
2023-03-11T04:22:45.204Z,66.36
2023-03-11T04:23:47.798Z,84.28
2023-03-11T04:24:50.353Z,92.65
2023-03-11T04:25:52.812Z,74.33
2023-03-11T04:26:55.415Z,61.27
2023-03-11T04:27:57.866Z,69.97
2023-03-11T04:29:00.458Z,83.33
2023-03-11T04:30:03.289Z,84.64
2023-03-11T04:31:05.911Z,90.56
2023-03-11T04:32:08.767Z,78.83
2023-03-11T04:33:11.312Z,80.25
2023-03-11T04:34:13.870Z,93.11
2023-03-11T04:35:16.446Z,111.94
2023-03-11T04:36:19.324Z,114.79
2023-03-11T04:37:21.994Z,78.17
2023-03-11T04:38:24.582Z,56.70
2023-03-11T04:39:27.455Z,75.23
2023-03-11T04:40:30.003Z,97.89
2023-03-11T04:41:32.593Z,65.10
2023-03-11T04:42:35.200Z,80.98
2023-03-11T04:43:37.799Z,65.99
2023-03-11T04:44:40.385Z,66.14
2023-03-11T04:45:42.958Z,115.08
2023-03-11T04:46:45.453Z,59.15
2023-03-11T04:47:48.042Z,89.11
2023-03-11T04:48:50.824Z,74.09
2023-03-11T04:49:53.713Z,71.75
2023-03-11T04:50:56.239Z,69.82
2023-03-11T04:51:58.801Z,62.94
2023-03-11T04:53:01.578Z,81.23
2023-03-11T04:54:04.132Z,71.16
2023-03-11T04:55:06.703Z,81.75
2023-03-11T04:56:09.759Z,63.68
2023-03-11T04:57:12.324Z,73.25
2023-03-11T04:58:14.928Z,55.98
2023-03-11T04:59:17.492Z,67.57
2023-03-11T05:00:20.175Z,56.75
2023-03-11T05:01:22.817Z,53.39
2023-03-11T05:02:25.487Z,57.73
2023-03-11T05:03:28.112Z,70.84
2023-03-11T05:04:30.686Z,73.39
2023-03-11T05:05:33.510Z,52.49
2023-03-11T05:06:36.518Z,72.24
2023-03-11T05:07:39.056Z,65.57
2023-03-11T05:08:41.667Z,68.59
2023-03-11T05:09:44.239Z,66.82
2023-03-11T05:10:46.894Z,83.75
2023-03-11T05:11:49.561Z,59.45
2023-03-11T05:12:52.159Z,71.69
2023-03-11T05:13:54.709Z,79.21
2023-03-11T05:14:57.272Z,78.24
2023-03-11T05:15:59.856Z,74.99
2023-03-11T05:17:02.432Z,72.53
2023-03-11T05:18:05.273Z,69.03
2023-03-11T05:19:07.882Z,63.14
2023-03-11T05:20:10.531Z,71.09
2023-03-11T05:21:13.083Z,67.29
2023-03-11T05:22:15.947Z,65.77
2023-03-11T05:23:18.509Z,67.10
2023-03-11T05:24:21.038Z,84.25
2023-03-11T05:25:23.595Z,71.68
2023-03-11T05:26:26.128Z,61.17
2023-03-11T05:27:28.677Z,65.53
2023-03-11T05:28:31.235Z,60.92
2023-03-11T05:29:33.825Z,64.24
2023-03-11T05:30:36.390Z,70.04
2023-03-11T05:31:38.945Z,59.51
2023-03-11T05:32:41.544Z,81.01
2023-03-11T05:33:44.059Z,66.61
2023-03-11T05:34:46.681Z,57.83
2023-03-11T05:35:49.284Z,66.51
2023-03-11T05:36:52.024Z,68.41
2023-03-11T05:37:54.569Z,48.20
2023-03-11T05:38:57.131Z,47.91
2023-03-11T05:39:59.720Z,65.84
2023-03-11T05:41:02.276Z,47.31
2023-03-11T05:42:04.835Z,62.96
2023-03-11T05:43:07.384Z,58.71
2023-03-11T05:44:10.053Z,56.83
2023-03-11T05:45:12.676Z,62.76
2023-03-11T05:46:15.544Z,53.81
2023-03-11T05:47:18.099Z,47.85
2023-03-11T05:48:20.771Z,42.95
2023-03-11T05:49:23.505Z,60.20
2023-03-11T05:50:26.133Z,44.42
2023-03-11T05:51:28.679Z,48.79
2023-03-11T05:52:31.231Z,63.63
2023-03-11T05:53:33.786Z,49.76
2023-03-11T05:54:36.349Z,61.19
2023-03-11T05:55:39.236Z,58.47
2023-03-11T05:56:41.797Z,59.93
2023-03-11T05:57:44.381Z,53.62
2023-03-11T05:58:46.928Z,56.83
2023-03-11T05:59:49.483Z,61.83
2023-03-11T06:00:52.113Z,58.97
2023-03-11T06:01:54.575Z,58.95
2023-03-11T06:02:57.178Z,38.95
2023-03-11T06:03:59.818Z,51.99
2023-03-11T06:05:02.716Z,49.16
2023-03-11T06:06:05.899Z,41.79
2023-03-11T06:07:08.452Z,54.11
2023-03-11T06:08:11.008Z,56.98
2023-03-11T06:09:13.881Z,65.06
2023-03-11T06:10:16.517Z,53.28
2023-03-11T06:11:19.157Z,42.43
2023-03-11T06:12:21.714Z,91.26
2023-03-11T06:13:24.277Z,50.19
2023-03-11T06:14:26.731Z,74.11
2023-03-11T06:15:29.313Z,64.77
2023-03-11T06:16:31.975Z,56.01
2023-03-11T06:17:34.504Z,54.03
2023-03-11T06:18:37.063Z,60.23
2023-03-11T06:19:39.630Z,57.13
2023-03-11T06:20:42.200Z,58.78
2023-03-11T06:21:44.811Z,44.73
2023-03-11T06:22:47.283Z,66.42
2023-03-11T06:23:49.852Z,37.25
2023-03-11T06:24:52.404Z,51.29
2023-03-11T06:25:54.984Z,46.63
2023-03-11T06:26:57.780Z,50.46
2023-03-11T06:28:00.393Z,45.17
2023-03-11T06:29:02.953Z,41.05
2023-03-11T06:30:05.741Z,48.21
2023-03-11T06:31:08.377Z,48.10
2023-03-11T06:32:11.130Z,43.87
2023-03-11T06:33:13.701Z,52.06
2023-03-11T06:34:16.313Z,45.82
2023-03-11T06:35:18.863Z,42.65
2023-03-11T06:36:21.478Z,43.43
2023-03-11T06:37:24.065Z,40.77
2023-03-11T06:38:26.667Z,43.99
2023-03-11T06:39:29.372Z,40.31
2023-03-11T06:40:31.888Z,56.60
2023-03-11T06:41:34.500Z,47.19
2023-03-11T06:42:37.094Z,45.41
2023-03-11T06:43:39.889Z,33.05
2023-03-11T06:44:42.546Z,44.49
2023-03-11T06:45:45.165Z,45.01
2023-03-11T06:46:47.890Z,67.06
2023-03-11T06:47:50.436Z,47.58
2023-03-11T06:48:52.985Z,38.83
2023-03-11T06:49:55.563Z,51.08
2023-03-11T06:50:58.088Z,44.57
2023-03-11T06:52:00.647Z,42.67
2023-03-11T06:53:03.266Z,41.66
2023-03-11T06:54:05.820Z,33.75
2023-03-11T06:55:08.383Z,38.81
2023-03-11T06:56:12.458Z,43.58
2023-03-11T06:57:15.007Z,34.57
2023-03-11T06:58:17.600Z,40.29
2023-03-11T06:59:20.171Z,39.90
2023-03-11T07:00:22.817Z,40.34
2023-03-11T07:01:25.435Z,39.89
2023-03-11T07:02:28.138Z,38.44
2023-03-11T07:03:30.717Z,43.53
2023-03-11T07:04:33.278Z,41.12
2023-03-11T07:05:35.823Z,43.89
2023-03-11T07:06:38.377Z,32.82
2023-03-11T07:07:40.954Z,52.21
2023-03-11T07:08:43.568Z,37.90
2023-03-11T07:09:46.033Z,41.19
2023-03-11T07:10:48.581Z,41.42
2023-03-11T07:11:51.153Z,50.91
2023-03-11T07:12:53.709Z,35.77
2023-03-11T07:13:56.285Z,34.71
2023-03-11T07:14:58.880Z,36.39
2023-03-11T07:16:01.426Z,41.82
2023-03-11T07:17:03.968Z,51.91
2023-03-11T07:18:06.534Z,47.26
2023-03-11T07:19:09.132Z,46.86
2023-03-11T07:20:11.992Z,38.89
2023-03-11T07:21:14.560Z,44.79
2023-03-11T07:22:17.118Z,37.01
2023-03-11T07:23:20.269Z,40.64
2023-03-11T07:24:23.096Z,37.73
2023-03-11T07:25:25.836Z,41.41
2023-03-11T07:26:28.672Z,36.13
2023-03-11T07:27:31.239Z,42.82
2023-03-11T07:28:33.803Z,42.17
2023-03-11T07:29:36.389Z,39.34
2023-03-11T07:30:39.086Z,43.55
2023-03-11T07:31:41.722Z,34.42
2023-03-11T07:32:44.350Z,36.44
2023-03-11T07:33:46.892Z,38.33
2023-03-11T07:34:49.500Z,41.30
2023-03-11T07:35:52.416Z,50.10
2023-03-11T07:36:55.055Z,39.86
2023-03-11T07:37:57.606Z,50.97
2023-03-11T07:39:01.116Z,43.55
2023-03-11T07:40:04.588Z,34.46
2023-03-11T07:41:07.144Z,37.78
2023-03-11T07:42:09.719Z,35.88
2023-03-11T07:43:12.302Z,30.49
2023-03-11T07:44:14.909Z,46.36
2023-03-11T07:45:17.763Z,28.33
2023-03-11T07:46:20.662Z,35.35
2023-03-11T07:47:23.279Z,35.42
2023-03-11T07:48:25.844Z,43.01
2023-03-11T07:49:28.431Z,39.01
2023-03-11T07:50:31.032Z,38.99
2023-03-11T07:51:33.618Z,41.93
2023-03-11T07:52:36.154Z,40.19
2023-03-11T07:53:38.732Z,54.70
2023-03-11T07:54:41.272Z,36.09
2023-03-11T07:55:43.877Z,40.38
2023-03-11T07:56:46.444Z,37.71
2023-03-11T07:57:49.015Z,31.96
2023-03-11T07:58:51.774Z,34.11
2023-03-11T07:59:54.369Z,32.59
2023-03-11T08:00:57.081Z,36.22
2023-03-11T08:01:59.754Z,37.31
2023-03-11T08:03:02.423Z,30.99
2023-03-11T08:04:05.018Z,34.87
2023-03-11T08:05:07.643Z,30.09
2023-03-11T08:06:10.807Z,34.36
2023-03-11T08:07:13.407Z,31.25
2023-03-11T08:08:15.971Z,35.01
2023-03-11T08:09:18.526Z,30.69
2023-03-11T08:10:21.440Z,29.96
2023-03-11T08:11:24.076Z,29.79
2023-03-11T08:12:26.659Z,37.04
2023-03-11T08:13:29.238Z,31.83
2023-03-11T08:14:31.842Z,39.55
2023-03-11T08:15:34.444Z,34.20
2023-03-11T08:16:37.104Z,36.04
2023-03-11T08:17:39.726Z,29.97
2023-03-11T08:18:42.263Z,26.68
2023-03-11T08:19:44.829Z,31.79
2023-03-11T08:20:47.381Z,28.49
2023-03-11T08:21:49.985Z,30.59
2023-03-11T08:22:57.905Z,32.05
2023-03-11T08:23:56.934Z,31.11
2023-03-11T08:24:59.399Z,25.27
2023-03-11T08:26:01.960Z,33.25
2023-03-11T08:27:04.559Z,28.10
2023-03-11T08:28:07.141Z,33.75
2023-03-11T08:29:09.703Z,29.97
2023-03-11T08:30:12.751Z,28.78
2023-03-11T08:31:15.409Z,30.01
2023-03-11T08:32:18.061Z,29.75
2023-03-11T08:33:20.613Z,32.01
2023-03-11T08:34:23.214Z,30.97
2023-03-11T08:35:26.113Z,35.46
2023-03-11T08:36:28.996Z,34.33
2023-03-11T08:37:31.655Z,30.47
2023-03-11T08:38:34.235Z,31.27
2023-03-11T08:39:36.985Z,32.29
2023-03-11T08:40:39.542Z,32.34
2023-03-11T08:41:42.101Z,27.85
2023-03-11T08:42:44.703Z,30.31
2023-03-11T08:43:47.300Z,28.11
2023-03-11T08:44:49.872Z,30.46
2023-03-11T08:45:52.444Z,25.90
2023-03-11T08:46:55.164Z,27.55
2023-03-11T08:47:57.671Z,28.69
2023-03-11T08:49:01.307Z,29.33
2023-03-11T08:50:04.320Z,26.29
2023-03-11T08:51:06.985Z,28.39
2023-03-11T08:52:09.679Z,30.23
2023-03-11T08:53:12.322Z,28.97
2023-03-11T08:54:14.847Z,30.44
2023-03-11T08:55:17.378Z,29.08
2023-03-11T08:56:20.089Z,29.56
2023-03-11T08:57:22.592Z,29.37
2023-03-11T08:58:25.219Z,26.65
2023-03-11T08:59:27.792Z,30.53
2023-03-11T09:00:30.344Z,29.05
2023-03-11T09:01:32.920Z,26.94
2023-03-11T09:02:35.542Z,29.27
2023-03-11T09:03:38.770Z,27.48
2023-03-11T09:04:41.344Z,27.69
2023-03-11T09:05:43.940Z,29.20
2023-03-11T09:06:46.493Z,29.14
2023-03-11T09:07:49.298Z,32.01
2023-03-11T09:08:51.872Z,29.65
2023-03-11T09:09:54.438Z,30.18
2023-03-11T09:10:57.000Z,27.43
2023-03-11T09:11:59.590Z,30.61
2023-03-11T09:13:02.117Z,27.83
2023-03-11T09:14:04.736Z,26.87
2023-03-11T09:15:07.329Z,26.61
2023-03-11T09:16:10.142Z,24.49
2023-03-11T09:17:12.754Z,27.02
2023-03-11T09:18:15.356Z,26.24
2023-03-11T09:19:17.949Z,25.05
2023-03-11T09:20:20.856Z,24.94
2023-03-11T09:21:23.512Z,24.55
2023-03-11T09:22:26.085Z,24.69
2023-03-11T09:23:28.647Z,25.03
2023-03-11T09:24:31.259Z,24.87
2023-03-11T09:25:34.062Z,23.71
2023-03-11T09:26:36.583Z,27.32
2023-03-11T09:27:39.132Z,26.13
2023-03-11T09:28:41.728Z,32.24
2023-03-11T09:29:44.371Z,29.73
2023-03-11T09:30:47.212Z,27.86
2023-03-11T09:31:49.818Z,30.83
2023-03-11T09:32:52.610Z,26.01
2023-03-11T09:33:55.198Z,26.12
2023-03-11T09:34:57.791Z,30.26
2023-03-11T09:36:00.362Z,26.70
2023-03-11T09:37:02.887Z,28.63
2023-03-11T09:38:05.576Z,26.83
2023-03-11T09:39:08.127Z,25.56
2023-03-11T09:40:10.622Z,29.98
2023-03-11T09:41:13.184Z,31.57
2023-03-11T09:42:15.754Z,29.74
2023-03-11T09:43:18.633Z,28.61
2023-03-11T09:44:21.187Z,29.03
2023-03-11T09:45:23.799Z,27.82
2023-03-11T09:46:26.422Z,27.13
2023-03-11T09:47:29.345Z,25.27
2023-03-11T09:48:31.854Z,26.21
2023-03-11T09:49:34.411Z,32.57
2023-03-11T09:50:36.997Z,27.08
2023-03-11T09:51:39.549Z,27.21
2023-03-11T09:52:42.009Z,27.27
2023-03-11T09:53:44.571Z,30.65
2023-03-11T09:54:47.316Z,28.42
2023-03-11T09:55:50.490Z,30.01
2023-03-11T09:56:53.072Z,31.16
2023-03-11T09:57:55.624Z,30.20
2023-03-11T09:58:58.138Z,31.73
2023-03-11T10:00:00.690Z,29.82
2023-03-11T10:01:03.304Z,26.83
2023-03-11T10:02:05.841Z,26.67
2023-03-11T10:03:08.482Z,28.45
2023-03-11T10:04:11.109Z,29.41
2023-03-11T10:05:13.687Z,30.83
2023-03-11T10:06:16.754Z,27.61
2023-03-11T10:07:19.313Z,28.39
2023-03-11T10:08:21.894Z,30.00
2023-03-11T10:09:24.419Z,31.09
2023-03-11T10:10:27.120Z,26.79
2023-03-11T10:11:30.285Z,28.54
2023-03-11T10:12:32.853Z,29.83
2023-03-11T10:13:35.430Z,32.07
2023-03-11T10:14:38.070Z,29.29
2023-03-11T10:15:40.661Z,29.99
2023-03-11T10:16:43.506Z,28.42
2023-03-11T10:17:46.152Z,27.99
2023-03-11T10:18:48.704Z,28.61
2023-03-11T10:19:51.260Z,28.56
2023-03-11T10:20:53.720Z,28.49
2023-03-11T10:21:56.318Z,32.41
2023-03-11T10:22:58.896Z,30.98
2023-03-11T10:24:01.373Z,30.59
2023-03-11T10:25:03.900Z,30.91
2023-03-11T10:26:06.754Z,26.93
2023-03-11T10:27:09.568Z,30.87
2023-03-11T10:28:12.191Z,28.33
2023-03-11T10:29:14.765Z,29.59
2023-03-11T10:30:17.867Z,34.37
2023-03-11T10:31:20.458Z,36.61
2023-03-11T10:32:23.260Z,28.24
2023-03-11T10:33:26.074Z,28.11
2023-03-11T10:34:28.631Z,31.37
2023-03-11T10:35:31.184Z,32.95
2023-03-11T10:36:33.838Z,34.19
2023-03-11T10:37:48.752Z,31.78
2023-03-11T10:38:40.785Z,36.86
2023-03-11T10:39:43.353Z,32.57
2023-03-11T10:40:46.020Z,35.36
2023-03-11T10:41:48.579Z,35.27
2023-03-11T10:42:51.215Z,29.78
2023-03-11T10:43:53.788Z,32.31
2023-03-11T10:44:56.347Z,35.73
2023-03-11T10:45:58.948Z,36.56
2023-03-11T10:47:01.758Z,38.01
2023-03-11T10:48:04.344Z,38.49
2023-03-11T10:49:06.899Z,41.59
2023-03-11T10:50:09.759Z,34.64
2023-03-11T10:51:12.322Z,37.48
2023-03-11T10:52:14.916Z,35.19
2023-03-11T10:53:17.522Z,42.90
2023-03-11T10:54:20.011Z,38.37
2023-03-11T10:55:22.565Z,36.51
2023-03-11T10:56:25.169Z,41.77
2023-03-11T10:57:27.741Z,41.81
2023-03-11T10:58:30.286Z,41.05
2023-03-11T10:59:32.833Z,40.39
2023-03-11T11:00:35.394Z,43.01
2023-03-11T11:01:38.043Z,39.64
2023-03-11T11:02:43.534Z,36.18
2023-03-11T11:03:45.260Z,42.99
2023-03-11T11:04:47.816Z,43.91
2023-03-11T11:05:50.677Z,47.13
2023-03-11T11:06:53.329Z,48.71
2023-03-11T11:07:55.891Z,44.92
2023-03-11T11:08:58.693Z,44.77
2023-03-11T11:10:01.281Z,43.59
2023-03-11T11:11:03.737Z,52.99
2023-03-11T11:12:06.434Z,47.23
2023-03-11T11:13:08.947Z,47.51
2023-03-11T11:14:11.502Z,47.93
2023-03-11T11:15:14.025Z,54.96
2023-03-11T11:16:16.637Z,46.71
2023-03-11T11:17:19.448Z,55.43
2023-03-11T11:18:22.079Z,46.93
2023-03-11T11:19:24.661Z,47.21
2023-03-11T11:20:27.254Z,45.41
2023-03-11T11:21:29.804Z,53.95
2023-03-11T11:22:32.273Z,50.99
2023-03-11T11:23:34.833Z,53.00
2023-03-11T11:24:37.422Z,47.17
2023-03-11T11:25:39.980Z,48.69
2023-03-11T11:26:42.554Z,48.46
2023-03-11T11:27:45.097Z,42.42
2023-03-11T11:28:47.693Z,45.25
2023-03-11T11:29:50.248Z,43.07
2023-03-11T11:30:52.833Z,48.13
2023-03-11T11:31:55.374Z,41.33
2023-03-11T11:32:57.939Z,41.82
2023-03-11T11:34:00.481Z,46.12
2023-03-11T11:35:03.115Z,36.18
2023-03-11T11:36:05.954Z,41.96
2023-03-11T11:37:08.543Z,42.39
2023-03-11T11:38:11.100Z,40.76
2023-03-11T11:39:13.652Z,45.94
2023-03-11T11:40:16.251Z,40.27
2023-03-11T11:41:18.877Z,40.86
2023-03-11T11:42:21.765Z,37.28
2023-03-11T11:43:24.342Z,31.95
2023-03-11T11:44:26.899Z,37.03
2023-03-11T11:45:29.720Z,32.24
2023-03-11T11:46:32.377Z,30.69
2023-03-11T11:47:35.030Z,33.64
2023-03-11T11:48:37.497Z,35.43
2023-03-11T11:49:40.055Z,30.35
2023-03-11T11:50:42.735Z,32.25
2023-03-11T11:51:45.292Z,34.93
2023-03-11T11:52:48.148Z,32.01
2023-03-11T11:53:50.720Z,32.77
2023-03-11T11:54:53.270Z,27.73
2023-03-11T11:55:55.883Z,29.07
2023-03-11T11:56:58.751Z,32.13
2023-03-11T11:58:01.302Z,29.85
2023-03-11T11:59:03.866Z,27.82
2023-03-11T12:00:06.722Z,26.31
2023-03-11T12:01:09.440Z,27.19
2023-03-11T12:02:11.993Z,29.72
2023-03-11T12:03:14.615Z,22.63
2023-03-11T12:04:17.146Z,25.30
2023-03-11T12:05:19.722Z,18.84
2023-03-11T12:06:22.508Z,24.56
2023-03-11T12:07:25.052Z,22.05
2023-03-11T12:08:27.628Z,22.05
2023-03-11T12:09:30.185Z,24.33
2023-03-11T12:10:32.868Z,19.03
2023-03-11T12:11:36.108Z,20.33
2023-03-11T12:12:38.694Z,22.09
2023-03-11T12:13:41.250Z,18.25
2023-03-11T12:14:43.810Z,16.81
2023-03-11T12:15:46.417Z,14.63
2023-03-11T12:16:49.237Z,15.81
2023-03-11T12:17:51.821Z,16.33
2023-03-11T12:18:54.388Z,16.63
2023-03-11T12:19:57.019Z,14.71
2023-03-11T12:20:59.793Z,16.18
2023-03-11T12:22:02.376Z,16.35
2023-03-11T12:23:04.953Z,21.33
2023-03-11T12:24:07.510Z,16.10
2023-03-11T12:25:10.077Z,16.63
2023-03-11T12:26:12.885Z,14.75
2023-03-11T12:27:15.490Z,22.09
2023-03-11T12:28:18.034Z,15.47
2023-03-11T12:29:20.597Z,15.68
2023-03-11T12:30:23.157Z,14.29
2023-03-11T12:31:25.970Z,13.54
2023-03-11T12:32:28.636Z,13.09
2023-03-11T12:33:31.201Z,14.97
2023-03-11T12:34:33.765Z,15.19
2023-03-11T12:35:36.349Z,18.19
2023-03-11T12:36:39.182Z,13.07
2023-03-11T12:37:41.787Z,14.91
2023-03-11T12:38:44.581Z,13.29
2023-03-11T12:39:47.295Z,13.65
2023-03-11T12:40:50.348Z,10.91
2023-03-11T12:41:52.920Z,13.21
2023-03-11T12:42:55.507Z,10.89
2023-03-11T12:43:58.093Z,15.83
2023-03-11T12:45:00.644Z,13.19
2023-03-11T12:46:03.190Z,12.59
2023-03-11T12:47:05.781Z,14.06
2023-03-11T12:48:08.367Z,13.11
2023-03-11T12:49:10.919Z,14.35
2023-03-11T12:50:14.206Z,15.26
2023-03-11T12:51:16.765Z,14.73
2023-03-11T12:52:19.336Z,14.85
2023-03-11T12:53:21.961Z,16.05
2023-03-11T12:54:24.586Z,13.56
2023-03-11T12:55:27.171Z,14.77
2023-03-11T12:56:29.931Z,20.44
2023-03-11T12:57:32.499Z,23.78
2023-03-11T12:58:35.394Z,19.60
2023-03-11T12:59:38.082Z,17.23
2023-03-11T13:00:40.663Z,14.95
2023-03-11T13:01:43.270Z,14.52
2023-03-11T13:02:46.004Z,16.29
2023-03-11T13:03:48.608Z,14.97
2023-03-11T13:04:51.192Z,15.25
2023-03-11T13:05:53.737Z,18.21
2023-03-11T13:06:56.398Z,15.67
2023-03-11T13:07:59.012Z,18.03
2023-03-11T13:09:01.745Z,17.64
2023-03-11T13:10:04.612Z,16.31
2023-03-11T13:11:07.190Z,14.05
2023-03-11T13:12:09.749Z,14.19
2023-03-11T13:13:12.301Z,15.67
2023-03-11T13:14:15.076Z,12.82
2023-03-11T13:15:17.577Z,14.15
2023-03-11T13:16:20.451Z,14.61
2023-03-11T13:17:23.248Z,14.09
2023-03-11T13:18:25.808Z,15.09
2023-03-11T13:19:28.375Z,14.90
2023-03-11T13:20:30.936Z,13.07
2023-03-11T13:21:33.522Z,16.97
2023-03-11T13:22:36.082Z,15.85
2023-03-11T13:23:38.741Z,15.72
2023-03-11T13:24:41.341Z,16.48
2023-03-11T13:25:43.922Z,14.13
2023-03-11T13:26:46.790Z,14.61